Details From RJGG - Chubu Centrair Intl
To RJSN - Niigata
Flight Number -
Tags Decoded
Created
Modified
Stats Distance 217 nm / 402 km
Max Altitude 0 ft / 0 m
Waypoints 4
Social Downloads 2
Likes 0
Share VATSIM

Download

Looking for another format? Having issues loading an existing format? Contact us
Advertisement - Login to hide

Notes

Decoded

Route

RJGG KCC NAEBA RJSN

ID Type Via Altitude Latitude Longitude Leg Dist Tot Dist Heading (true) Name
O RJGG APT - 0 ft / 0 m 34.87389˚ 136.80168˚ - 0 nm - -
KCC VOR - 0 ft / 0 m 35.26527˚ 136.91493˚ 24 nm 24 nm 13° / 13° NAGOYA VORTAC
NAEBA FIX - 0 ft / 0 m 37.25414˚ 138.53572˚ 142 nm 167 nm 33° / 34° -
O RJSN APT - 0 ft / 0 m 37.94826˚ 139.11467˚ 49 nm 217 nm 33° / 34° NIIGATA

Altitude Profile

Advertisement - Login to hide

Weather


0- 5 10 15 20 25 30 35+ Temperature / ° C

Clouds and Precipitation
Forecast for 2018-05-26 06:00 UTC. Updated 3 hours ago

Ground ~20,000 ft ~40,000 ft Winds

RJGG

Details ICAO RJGG (NGO)
Name CHUBU CENTRAIR INTL
Region Japan
Timezone Asia/Tokyo (UTC+9.0)
Stats Elevation 15 ft / 5 m (AMSL)
Location 34.858414° 136.805408°
Runways 1
Magnetic Variation 7.610° W

METAR

RJGG 260800Z 14010KT CAVOK 23/18 Q1007 NOSIG

Decode

TAF

TAF RJGG 260505Z 2606/2712 16010KT 9999 FEW030 BECMG 2616/2618 04004KT TEMPO 2618/2621 3500 BR BECMG 2700/2703 18010KT

Decode

Departure Runways

ID Width Length Bearing (true) Bearing (mag) Surface Threshold Offset Overrun Length
18 197 ft / 60 m 11,511 ft / 3,509 m 168.81° 176.42° Asphalt 0 ft / 0 m 197 ft / 60 m
36 197 ft / 60 m 11,511 ft / 3,509 m 348.81° 356.42° Asphalt 0 ft / 0 m 197 ft / 60 m

RJSN

Details ICAO RJSN (KIJ)
Name NIIGATA
Region Japan
Timezone Asia/Tokyo (UTC+9.0)
Stats Elevation 29 ft / 9 m (AMSL)
Location 37.954803° 139.114228°
Runways 2
Magnetic Variation 8.327° W

METAR

RJSN 260800Z 01014KT 9999 FEW030 18/11 Q1009

Decode

TAF

TAF RJSN 260505Z 2606/2712 02014KT 9999 FEW030 BECMG 2616/2618 18004KT BECMG 2700/2703 33010KT BECMG 2706/2709 03008KT

Decode

Destination Runways

ID Width Length Bearing (true) Bearing (mag) Surface Threshold Offset Overrun Length
04 150 ft / 46 m 4,321 ft / 1,317 m 31.80° 40.13° Asphalt 0 ft / 0 m 200 ft / 61 m
10 150 ft / 46 m 8,185 ft / 2,495 m 92.69° 101.02° Asphalt 0 ft / 0 m 200 ft / 61 m
22 150 ft / 46 m 4,321 ft / 1,317 m 211.80° 220.13° Asphalt 0 ft / 0 m 200 ft / 61 m
28 150 ft / 46 m 8,185 ft / 2,495 m 272.70° 281.03° Asphalt 0 ft / 0 m 200 ft / 61 m

Approach Navaids

Runway Type Ident Frequency Range Bearing (true) Bearing (mag) Slope Elevation
28 Localiser INC 109.30 MHz 18 nm / 33 km 272.69° 281.01° - 33 ft / 10 m (AMSL)
28 Glidescope INC 109.30 MHz 10 nm / 19 km 272.70° 281.02° 3.00° 58 ft / 18 m (AMSL)
28 DME INC 109.30 MHz 18 nm / 33 km - - - 33 ft / 10 m (AMSL)

Popular Alternatives